createdAt,value
2023-05-04T00:01:04.881Z,43.95
2023-05-04T00:03:35.597Z,43.99
2023-05-04T00:06:06.585Z,44.13
2023-05-04T00:08:37.176Z,44.03
2023-05-04T00:11:07.866Z,43.99
2023-05-04T00:13:38.422Z,44.08
2023-05-04T00:16:10.802Z,44.12
2023-05-04T00:18:41.791Z,44.08
2023-05-04T00:21:12.453Z,44.13
2023-05-04T00:23:43.086Z,44.18
2023-05-04T00:26:13.716Z,44.06
2023-05-04T00:28:44.863Z,44.26
2023-05-04T00:31:19.100Z,44.33
2023-05-04T00:33:49.938Z,44.33
2023-05-04T00:36:20.520Z,44.33
2023-05-04T00:38:51.859Z,44.32
2023-05-04T00:41:23.064Z,44.43
2023-05-04T00:43:53.684Z,44.57
2023-05-04T00:46:24.476Z,44.52
2023-05-04T00:48:55.193Z,44.51
2023-05-04T00:51:26.582Z,44.51
2023-05-04T00:53:57.376Z,44.59
2023-05-04T00:56:29.006Z,44.52
2023-05-04T00:58:59.790Z,44.60
2023-05-04T01:01:30.522Z,44.59
2023-05-04T01:04:01.679Z,44.77
2023-05-04T01:06:36.605Z,44.77
2023-05-04T01:09:12.317Z,44.72
2023-05-04T01:11:45.364Z,44.90
2023-05-04T01:14:16.123Z,44.92
2023-05-04T01:16:47.446Z,45.02
2023-05-04T01:19:18.684Z,45.03
2023-05-04T01:21:49.125Z,45.05
2023-05-04T01:24:19.686Z,45.11
2023-05-04T01:26:54.926Z,45.14
2023-05-04T01:29:28.950Z,45.07
2023-05-04T01:32:01.110Z,45.18
2023-05-04T01:34:32.007Z,45.24
2023-05-04T01:37:04.588Z,45.45
2023-05-04T01:39:35.236Z,45.29
2023-05-04T01:42:07.417Z,45.34
2023-05-04T01:44:37.945Z,45.33
2023-05-04T01:47:08.746Z,45.48
2023-05-04T01:49:39.418Z,45.37
2023-05-04T01:52:10.077Z,45.48
2023-05-04T01:54:40.740Z,45.45
2023-05-04T01:57:11.366Z,45.52
2023-05-04T01:59:41.897Z,45.44
2023-05-04T02:02:12.555Z,45.47
2023-05-04T02:04:44.202Z,45.65
2023-05-04T02:07:14.928Z,45.65
2023-05-04T02:09:46.305Z,45.52
2023-05-04T02:12:16.979Z,45.55
2023-05-04T02:14:47.495Z,45.62
2023-05-04T02:17:18.137Z,45.79
2023-05-04T02:19:48.760Z,45.69
2023-05-04T02:22:19.267Z,45.64
2023-05-04T02:24:49.754Z,45.74
2023-05-04T02:27:20.340Z,45.84
2023-05-04T02:29:51.205Z,45.87
2023-05-04T02:32:22.198Z,45.93
2023-05-04T02:34:53.651Z,45.80
2023-05-04T02:37:25.097Z,45.84
2023-05-04T02:39:55.643Z,45.84
2023-05-04T02:42:26.260Z,45.98
2023-05-04T02:44:56.959Z,45.90
2023-05-04T02:47:27.636Z,45.98
2023-05-04T02:49:58.237Z,46.03
2023-05-04T02:52:28.869Z,46.15
2023-05-04T02:54:59.782Z,46.17
2023-05-04T02:57:30.786Z,46.15
2023-05-04T03:00:01.362Z,46.21
2023-05-04T03:02:32.079Z,46.21
2023-05-04T03:05:02.985Z,46.26
2023-05-04T03:07:33.630Z,46.19
2023-05-04T03:10:04.619Z,46.37
2023-05-04T03:12:35.673Z,46.38
2023-05-04T03:15:06.893Z,46.52
2023-05-04T03:17:37.742Z,46.51
2023-05-04T03:20:10.824Z,46.60
2023-05-04T03:22:41.757Z,46.55
2023-05-04T03:25:12.927Z,46.62
2023-05-04T03:27:43.640Z,46.59
2023-05-04T03:30:16.312Z,46.59
2023-05-04T03:32:48.067Z,46.81
2023-05-04T03:35:24.312Z,46.84
2023-05-04T03:37:56.037Z,46.89
2023-05-04T03:40:26.815Z,46.84
2023-05-04T03:42:57.653Z,46.75
2023-05-04T03:45:28.801Z,46.76
2023-05-04T03:48:01.235Z,47.04
2023-05-04T03:50:32.032Z,47.03
2023-05-04T03:53:02.778Z,47.04
2023-05-04T03:55:33.436Z,46.98
2023-05-04T03:58:04.410Z,47.03
2023-05-04T04:00:35.459Z,47.03
2023-05-04T04:03:12.185Z,47.07
2023-05-04T04:05:43.186Z,47.05
2023-05-04T04:08:14.353Z,47.01
2023-05-04T04:10:45.296Z,47.29
2023-05-04T04:13:16.093Z,47.37
2023-05-04T04:15:47.007Z,47.40
2023-05-04T04:18:17.597Z,47.47
2023-05-04T04:20:48.183Z,47.51
2023-05-04T04:23:19.485Z,47.49
2023-05-04T04:25:50.001Z,47.56
2023-05-04T04:28:20.737Z,47.51
2023-05-04T04:30:51.736Z,47.48
2023-05-04T04:33:22.816Z,47.37
2023-05-04T04:35:53.618Z,47.39
2023-05-04T04:38:24.985Z,47.39
2023-05-04T04:40:55.508Z,47.41
2023-05-04T04:43:26.416Z,47.43
2023-05-04T04:45:57.098Z,47.46
2023-05-04T04:48:27.842Z,47.43
2023-05-04T04:50:58.585Z,47.41
2023-05-04T04:53:29.172Z,47.38
2023-05-04T04:55:59.756Z,47.56
2023-05-04T04:58:30.352Z,47.47
2023-05-04T05:01:01.031Z,47.63
2023-05-04T05:03:31.756Z,47.57
2023-05-04T05:06:02.857Z,47.68
2023-05-04T05:08:35.192Z,47.75
2023-05-04T05:11:06.139Z,47.58
2023-05-04T05:13:36.754Z,47.67
2023-05-04T05:16:07.784Z,47.81
2023-05-04T05:18:38.369Z,47.77
2023-05-04T05:21:09.359Z,47.76
2023-05-04T05:23:40.073Z,47.73
2023-05-04T05:26:10.916Z,47.81
2023-05-04T05:28:41.535Z,47.70
2023-05-04T05:31:12.091Z,47.79
2023-05-04T05:33:42.919Z,47.80
2023-05-04T05:36:14.603Z,47.69
2023-05-04T05:38:45.217Z,47.58
2023-05-04T05:41:16.263Z,47.78
2023-05-04T05:43:46.885Z,47.67
2023-05-04T05:46:18.491Z,47.65
2023-05-04T05:48:49.173Z,47.55
2023-05-04T05:51:19.817Z,47.54
2023-05-04T05:53:50.585Z,47.59
2023-05-04T05:56:22.366Z,47.66
2023-05-04T05:58:53.739Z,47.71
2023-05-04T06:01:24.374Z,47.67
2023-05-04T06:03:55.161Z,47.60
2023-05-04T06:06:25.976Z,47.52
2023-05-04T06:08:56.749Z,47.11
2023-05-04T06:11:27.439Z,47.10
2023-05-04T06:13:58.172Z,46.94
2023-05-04T06:16:28.828Z,47.11
2023-05-04T06:18:59.707Z,46.70
2023-05-04T06:21:30.301Z,46.67
2023-05-04T06:24:01.037Z,46.21
2023-05-04T06:26:31.822Z,46.53
2023-05-04T06:29:02.542Z,46.66
2023-05-04T06:31:33.295Z,46.50
2023-05-04T06:34:04.312Z,46.09
2023-05-04T06:36:34.837Z,45.50
2023-05-04T06:39:05.951Z,45.71
2023-05-04T06:41:37.214Z,46.17
2023-05-04T06:44:08.114Z,46.69
2023-05-04T06:46:38.721Z,45.74
2023-05-04T06:49:09.434Z,46.08
2023-05-04T06:51:40.215Z,46.18
2023-05-04T06:54:11.409Z,46.39
2023-05-04T06:56:42.378Z,46.08
2023-05-04T06:59:13.384Z,46.20
2023-05-04T07:01:45.713Z,45.69
2023-05-04T07:04:17.526Z,45.58
2023-05-04T07:06:48.352Z,44.71
2023-05-04T07:09:20.127Z,45.54
2023-05-04T07:11:50.857Z,44.80
2023-05-04T07:14:22.428Z,44.98
2023-05-04T07:16:53.104Z,44.78
2023-05-04T07:19:23.979Z,44.99
2023-05-04T07:21:54.460Z,44.58
2023-05-04T07:24:25.068Z,44.69
2023-05-04T07:26:55.671Z,44.56
2023-05-04T07:29:26.621Z,44.96
2023-05-04T07:31:57.278Z,44.51
2023-05-04T07:34:41.798Z,44.68
2023-05-04T07:37:16.085Z,44.72
2023-05-04T07:39:46.904Z,45.08
2023-05-04T07:42:17.489Z,44.76
2023-05-04T07:44:48.104Z,44.65
2023-05-04T07:47:18.665Z,44.09
2023-05-04T07:49:49.240Z,43.97
2023-05-04T07:52:19.859Z,44.01
2023-05-04T07:54:52.583Z,43.40
2023-05-04T07:57:23.337Z,43.58
2023-05-04T07:59:56.389Z,43.78
2023-05-04T08:02:27.137Z,44.16
2023-05-04T08:04:57.891Z,43.04
2023-05-04T08:07:28.498Z,42.52
2023-05-04T08:09:59.382Z,41.80
2023-05-04T08:12:30.214Z,41.15
2023-05-04T08:15:02.762Z,42.55
2023-05-04T08:17:35.018Z,43.08
2023-05-04T08:20:06.264Z,42.17
2023-05-04T08:22:37.010Z,40.92
2023-05-04T08:25:08.692Z,40.06
2023-05-04T08:27:39.352Z,40.51
2023-05-04T08:30:10.891Z,42.46
2023-05-04T08:32:41.565Z,39.37
2023-05-04T08:35:12.281Z,41.98
2023-05-04T08:37:43.024Z,42.61
2023-05-04T08:40:14.417Z,42.47
2023-05-04T08:42:48.156Z,41.94
2023-05-04T08:45:18.758Z,42.53
2023-05-04T08:47:49.482Z,41.35
2023-05-04T08:50:20.303Z,41.41
2023-05-04T08:52:52.407Z,41.16
2023-05-04T08:55:23.206Z,41.21
2023-05-04T08:57:54.407Z,41.87
2023-05-04T09:00:25.212Z,41.28
2023-05-04T09:02:56.606Z,41.66
2023-05-04T09:05:27.255Z,42.11
2023-05-04T09:07:58.080Z,42.26
2023-05-04T09:10:29.804Z,42.17
2023-05-04T09:13:00.611Z,41.67
2023-05-04T09:15:31.722Z,41.67
2023-05-04T09:18:05.287Z,41.46
2023-05-04T09:20:46.996Z,41.44
2023-05-04T09:23:18.347Z,41.77
2023-05-04T09:25:50.355Z,42.36
2023-05-04T09:28:21.965Z,40.56
2023-05-04T09:31:00.930Z,40.81
2023-05-04T09:33:32.112Z,41.17
2023-05-04T09:36:14.408Z,41.16
2023-05-04T09:38:45.393Z,40.53
2023-05-04T09:41:16.193Z,40.34
2023-05-04T09:43:46.851Z,40.25
2023-05-04T09:46:20.576Z,39.48
2023-05-04T09:48:55.242Z,39.80
2023-05-04T09:51:27.535Z,40.56
2023-05-04T09:54:00.691Z,38.77
2023-05-04T09:56:38.856Z,40.04
2023-05-04T09:59:10.913Z,40.06
2023-05-04T10:01:44.711Z,40.14
2023-05-04T10:04:15.716Z,40.37
2023-05-04T10:06:47.153Z,38.93
2023-05-04T10:09:18.129Z,38.38
2023-05-04T10:11:49.552Z,39.28
2023-05-04T10:14:20.185Z,39.15
2023-05-04T10:16:55.371Z,38.56
2023-05-04T10:19:40.906Z,37.70
2023-05-04T10:22:22.143Z,38.09
2023-05-04T10:25:07.810Z,37.01
2023-05-04T10:27:43.478Z,37.42
2023-05-04T10:30:16.796Z,38.86
2023-05-04T10:32:47.627Z,38.91
2023-05-04T10:35:19.904Z,38.98
2023-05-04T10:37:54.693Z,39.27
2023-05-04T10:40:36.271Z,39.81
2023-05-04T10:43:07.648Z,39.04
2023-05-04T10:45:39.572Z,38.22
2023-05-04T10:48:10.729Z,35.01
2023-05-04T10:50:45.048Z,37.02
2023-05-04T10:53:16.504Z,37.19
2023-05-04T10:55:48.715Z,38.78
2023-05-04T10:58:28.560Z,39.12
2023-05-04T11:00:59.232Z,38.55
2023-05-04T11:03:39.380Z,38.88
2023-05-04T11:06:19.586Z,37.62
2023-05-04T11:09:01.494Z,38.65
2023-05-04T11:11:37.240Z,38.52
2023-05-04T11:14:08.142Z,38.63
2023-05-04T11:16:38.752Z,38.71
2023-05-04T11:19:09.698Z,37.88
2023-05-04T11:21:41.616Z,38.29
2023-05-04T11:24:12.235Z,36.62
2023-05-04T11:26:49.822Z,37.84
2023-05-04T11:29:20.525Z,36.40
2023-05-04T11:31:57.472Z,35.12
2023-05-04T11:34:28.024Z,36.77
2023-05-04T11:36:58.737Z,37.40
2023-05-04T11:39:33.570Z,36.15
2023-05-04T11:42:09.050Z,36.58
2023-05-04T11:44:40.916Z,37.56
2023-05-04T11:47:12.223Z,37.46
2023-05-04T11:49:44.044Z,37.44
2023-05-04T11:52:14.689Z,38.07
2023-05-04T11:54:55.929Z,37.58
2023-05-04T11:57:26.653Z,37.64
2023-05-04T11:59:57.236Z,37.20
2023-05-04T12:02:28.129Z,37.42
2023-05-04T12:04:59.033Z,35.56
2023-05-04T12:07:30.357Z,35.46
2023-05-04T12:10:01.018Z,35.64
2023-05-04T12:12:37.141Z,34.90
2023-05-04T12:15:08.905Z,35.44
2023-05-04T12:17:43.210Z,35.77
2023-05-04T12:20:23.691Z,36.63
2023-05-04T12:22:54.298Z,36.65
2023-05-04T12:25:25.214Z,35.82
2023-05-04T12:27:55.891Z,35.71
2023-05-04T12:30:26.578Z,34.66
2023-05-04T12:32:57.165Z,35.85
2023-05-04T12:35:28.104Z,35.96
2023-05-04T12:37:59.110Z,35.98
2023-05-04T12:40:29.831Z,36.62
2023-05-04T12:43:00.542Z,36.62
2023-05-04T12:45:31.419Z,36.53
2023-05-04T12:48:02.477Z,36.11
2023-05-04T12:50:33.106Z,35.80
2023-05-04T12:53:04.467Z,36.19
2023-05-04T12:55:35.134Z,36.52
2023-05-04T12:58:06.125Z,36.44
2023-05-04T13:00:37.931Z,36.49
2023-05-04T13:03:08.821Z,36.40
2023-05-04T13:05:39.812Z,36.51
2023-05-04T13:08:10.805Z,36.37
2023-05-04T13:10:41.483Z,35.85
2023-05-04T13:13:13.241Z,35.87
2023-05-04T13:15:44.655Z,36.35
2023-05-04T13:18:15.352Z,36.26
2023-05-04T13:20:45.966Z,35.68
2023-05-04T13:23:16.756Z,35.30
2023-05-04T13:25:47.512Z,35.86
2023-05-04T13:28:18.604Z,36.07
2023-05-04T13:30:49.600Z,35.19
2023-05-04T13:33:29.545Z,34.80
2023-05-04T13:36:02.253Z,34.74
2023-05-04T13:38:33.482Z,35.12
2023-05-04T13:41:04.106Z,35.39
2023-05-04T13:43:34.855Z,35.54
2023-05-04T13:46:05.979Z,35.66
2023-05-04T13:48:36.821Z,35.66
2023-05-04T13:51:07.476Z,35.79
2023-05-04T13:53:38.108Z,35.57
2023-05-04T13:56:09.182Z,35.84
2023-05-04T13:58:39.834Z,35.87
2023-05-04T14:01:10.530Z,35.89
2023-05-04T14:03:41.274Z,35.66
2023-05-04T14:06:11.908Z,35.51
2023-05-04T14:08:42.626Z,35.53
2023-05-04T14:11:13.837Z,35.68
2023-05-04T14:13:45.846Z,35.86
2023-05-04T14:16:16.656Z,35.76
2023-05-04T14:18:48.057Z,35.94
2023-05-04T14:21:18.799Z,35.76
2023-05-04T14:23:49.428Z,35.86
2023-05-04T14:26:20.162Z,35.71
2023-05-04T14:28:50.908Z,35.57
2023-05-04T14:31:21.656Z,35.34
2023-05-04T14:33:53.306Z,35.41
2023-05-04T14:36:37.183Z,35.78
2023-05-04T14:39:08.856Z,35.53
2023-05-04T14:41:39.647Z,35.59
2023-05-04T14:44:10.455Z,35.85
2023-05-04T14:46:41.043Z,35.28
2023-05-04T14:49:16.287Z,35.46
2023-05-04T14:51:55.565Z,35.29
2023-05-04T14:54:26.405Z,35.72
2023-05-04T14:56:57.081Z,35.35
2023-05-04T14:59:27.902Z,35.48
2023-05-04T15:01:58.816Z,35.64
2023-05-04T15:04:29.497Z,35.61
2023-05-04T15:07:00.964Z,35.60
2023-05-04T15:09:31.580Z,35.80
2023-05-04T15:12:03.691Z,35.81
2023-05-04T15:14:34.358Z,35.79
2023-05-04T15:17:05.505Z,35.70
2023-05-04T15:19:37.169Z,35.63
2023-05-04T15:22:07.974Z,35.79
2023-05-04T15:24:38.591Z,35.67
2023-05-04T15:27:09.286Z,35.89
2023-05-04T15:29:39.916Z,35.74
2023-05-04T15:32:10.546Z,35.82
2023-05-04T15:34:42.533Z,35.90
2023-05-04T15:37:16.749Z,35.80
2023-05-04T15:39:47.330Z,35.89
2023-05-04T15:42:17.913Z,35.87
2023-05-04T15:44:48.519Z,35.92
2023-05-04T15:47:19.212Z,35.80
2023-05-04T15:49:49.964Z,35.86
2023-05-04T15:52:20.697Z,35.86
2023-05-04T15:54:51.270Z,35.88
2023-05-04T15:57:21.906Z,35.91
2023-05-04T15:59:52.544Z,35.95
2023-05-04T16:02:23.173Z,35.92
2023-05-04T16:04:53.697Z,36.02
2023-05-04T16:07:24.595Z,36.03
2023-05-04T16:09:55.153Z,35.94
2023-05-04T16:12:25.936Z,36.02
2023-05-04T16:14:56.744Z,36.07
2023-05-04T16:17:29.300Z,36.17
2023-05-04T16:20:00.087Z,36.16
2023-05-04T16:22:30.805Z,36.22
2023-05-04T16:25:02.076Z,36.26
2023-05-04T16:27:32.932Z,36.34
2023-05-04T16:30:03.699Z,36.32
2023-05-04T16:32:34.322Z,36.35
2023-05-04T16:35:05.214Z,36.36
2023-05-04T16:37:38.248Z,36.37
2023-05-04T16:40:14.350Z,36.50
2023-05-04T16:42:45.285Z,36.35
2023-05-04T16:45:15.816Z,36.42
2023-05-04T16:47:46.432Z,36.51
2023-05-04T16:50:17.219Z,36.47
2023-05-04T16:52:47.985Z,36.62
2023-05-04T16:55:18.590Z,36.60
2023-05-04T16:57:49.620Z,36.57
2023-05-04T17:00:20.803Z,36.58
2023-05-04T17:02:51.601Z,36.66
2023-05-04T17:05:22.288Z,36.75
2023-05-04T17:07:53.052Z,36.73
2023-05-04T17:10:24.846Z,36.86
2023-05-04T17:12:55.731Z,36.72
2023-05-04T17:15:26.363Z,36.80
2023-05-04T17:17:57.161Z,36.82
2023-05-04T17:20:30.517Z,36.89
2023-05-04T17:23:01.211Z,36.92
2023-05-04T17:25:32.003Z,36.98
2023-05-04T17:28:03.367Z,36.92
2023-05-04T17:30:35.766Z,36.99
2023-05-04T17:33:06.514Z,36.95
2023-05-04T17:35:37.018Z,37.10
2023-05-04T17:38:07.665Z,37.09
2023-05-04T17:40:38.237Z,37.10
2023-05-04T17:43:08.852Z,37.16
2023-05-04T17:45:39.416Z,37.15
2023-05-04T17:48:10.162Z,37.27
2023-05-04T17:50:41.407Z,37.29
2023-05-04T17:53:12.405Z,37.31
2023-05-04T17:55:43.094Z,37.37
2023-05-04T17:58:13.922Z,37.39
2023-05-04T18:00:44.518Z,37.51
2023-05-04T18:03:15.293Z,37.45
2023-05-04T18:05:46.514Z,37.43
2023-05-04T18:08:17.219Z,37.55
2023-05-04T18:10:48.684Z,37.58
2023-05-04T18:13:19.382Z,37.66
2023-05-04T18:15:50.706Z,37.77
2023-05-04T18:18:21.561Z,37.79
2023-05-04T18:20:52.500Z,37.72
2023-05-04T18:23:23.101Z,37.83
2023-05-04T18:25:53.661Z,37.92
2023-05-04T18:28:24.389Z,37.87
2023-05-04T18:30:55.045Z,37.92
2023-05-04T18:33:25.743Z,37.90
2023-05-04T18:35:56.317Z,37.92
2023-05-04T18:38:27.596Z,38.01
2023-05-04T18:40:58.122Z,38.00
2023-05-04T18:43:28.702Z,38.19
2023-05-04T18:45:59.487Z,38.23
2023-05-04T18:48:30.144Z,38.26
2023-05-04T18:51:00.969Z,38.24
2023-05-04T18:53:31.948Z,38.37
2023-05-04T18:56:03.977Z,38.35
2023-05-04T18:58:34.878Z,38.44
2023-05-04T19:01:05.860Z,38.52
2023-05-04T19:03:36.895Z,38.66
2023-05-04T19:06:07.917Z,38.60
2023-05-04T19:08:38.557Z,38.68
2023-05-04T19:11:09.392Z,38.76
2023-05-04T19:13:39.987Z,38.82
2023-05-04T19:16:13.991Z,38.83
2023-05-04T19:18:45.871Z,38.90
2023-05-04T19:21:16.798Z,38.91
2023-05-04T19:23:47.424Z,38.91
2023-05-04T19:26:17.996Z,38.88
2023-05-04T19:28:48.681Z,38.88
2023-05-04T19:31:19.265Z,38.92
2023-05-04T19:33:50.059Z,39.04
2023-05-04T19:36:20.759Z,39.04
2023-05-04T19:38:51.462Z,39.14
2023-05-04T19:41:22.288Z,39.17
2023-05-04T19:43:52.897Z,39.17
2023-05-04T19:46:23.494Z,39.31
2023-05-04T19:48:54.388Z,39.31
2023-05-04T19:51:24.960Z,39.26
2023-05-04T19:53:55.642Z,39.29
2023-05-04T19:56:26.219Z,39.44
2023-05-04T19:58:56.863Z,39.47
2023-05-04T20:01:27.424Z,39.46
2023-05-04T20:03:58.071Z,39.43
2023-05-04T20:06:28.987Z,39.58
2023-05-04T20:08:59.692Z,39.56
2023-05-04T20:11:30.324Z,39.64
2023-05-04T20:14:01.372Z,39.72
2023-05-04T20:16:32.087Z,39.82
2023-05-04T20:19:04.186Z,39.78
2023-05-04T20:21:34.940Z,39.98
2023-05-04T20:24:05.844Z,40.08
2023-05-04T20:26:36.374Z,40.11
2023-05-04T20:29:07.290Z,40.28
2023-05-04T20:31:38.022Z,40.27
2023-05-04T20:34:08.653Z,40.25
2023-05-04T20:36:39.277Z,40.46
2023-05-04T20:39:10.324Z,40.32
2023-05-04T20:41:41.158Z,40.60
2023-05-04T20:44:11.882Z,40.74
2023-05-04T20:46:42.476Z,40.82
2023-05-04T20:49:13.578Z,40.68
2023-05-04T20:51:44.124Z,41.20
2023-05-04T20:54:15.358Z,40.70
2023-05-04T20:56:46.030Z,40.86
2023-05-04T20:59:17.120Z,40.72
2023-05-04T21:01:48.072Z,40.65
2023-05-04T21:04:18.832Z,40.80
2023-05-04T21:06:50.266Z,40.74
2023-05-04T21:09:21.679Z,40.72
2023-05-04T21:11:52.695Z,40.80
2023-05-04T21:14:23.838Z,40.88
2023-05-04T21:16:54.496Z,40.87
2023-05-04T21:19:25.251Z,40.91
2023-05-04T21:21:56.398Z,41.01
2023-05-04T21:24:27.131Z,41.04
2023-05-04T21:26:57.765Z,41.02
2023-05-04T21:29:28.578Z,41.06
2023-05-04T21:31:59.257Z,40.99
2023-05-04T21:34:33.722Z,41.10
2023-05-04T21:37:07.861Z,41.47
2023-05-04T21:39:38.427Z,41.16
2023-05-04T21:42:08.967Z,41.28
2023-05-04T21:44:39.537Z,41.22
2023-05-04T21:47:10.049Z,41.22
2023-05-04T21:49:40.986Z,41.27
2023-05-04T21:52:11.588Z,41.28
2023-05-04T21:54:42.276Z,41.43
2023-05-04T21:57:12.957Z,41.36
2023-05-04T21:59:43.591Z,41.44
2023-05-04T22:02:14.191Z,41.44
2023-05-04T22:04:45.085Z,41.52
2023-05-04T22:07:15.721Z,41.52
2023-05-04T22:09:46.308Z,41.72
2023-05-04T22:12:16.928Z,41.58
2023-05-04T22:14:47.514Z,41.66
2023-05-04T22:17:18.086Z,41.66
2023-05-04T22:19:48.875Z,41.69
2023-05-04T22:22:19.305Z,41.71
2023-05-04T22:24:50.008Z,41.78
2023-05-04T22:27:20.722Z,41.70
2023-05-04T22:29:51.484Z,41.70
2023-05-04T22:32:22.183Z,41.93
2023-05-04T22:34:52.886Z,41.81
2023-05-04T22:37:23.486Z,41.93
2023-05-04T22:39:54.089Z,41.90
2023-05-04T22:42:24.774Z,42.08
2023-05-04T22:44:55.383Z,42.00
2023-05-04T22:47:25.975Z,42.05
2023-05-04T22:49:57.103Z,42.13
2023-05-04T22:52:27.922Z,41.98
2023-05-04T22:54:58.598Z,42.07
2023-05-04T22:57:29.573Z,42.02
2023-05-04T23:00:00.245Z,42.13
2023-05-04T23:02:30.845Z,42.03
2023-05-04T23:05:01.792Z,42.29
2023-05-04T23:07:32.304Z,42.65
2023-05-04T23:10:03.393Z,42.51
2023-05-04T23:12:34.074Z,42.47
2023-05-04T23:15:05.107Z,42.63
2023-05-04T23:17:38.446Z,42.41
2023-05-04T23:20:11.616Z,42.42
2023-05-04T23:22:42.093Z,42.22
2023-05-04T23:25:12.752Z,42.37
2023-05-04T23:27:43.370Z,42.55
2023-05-04T23:30:14.287Z,42.46
2023-05-04T23:32:44.932Z,42.56
2023-05-04T23:35:15.574Z,42.41
2023-05-04T23:37:46.129Z,42.27
2023-05-04T23:40:16.770Z,42.69
2023-05-04T23:42:49.610Z,42.78
2023-05-04T23:45:20.548Z,42.48
2023-05-04T23:47:51.221Z,42.66
2023-05-04T23:50:22.110Z,42.79
2023-05-04T23:52:52.689Z,42.86
2023-05-04T23:55:23.476Z,42.93
2023-05-04T23:57:54.003Z,43.17
